Time;durP1;ratioP1;P1;durP2;ratioP2;P2;SDS_P1;SDS_P2;PMS_P1;PMS_P2;Temp;Humidity;BMP_temperature;BMP_pressure;BME280_temperature;BME280_humidity;BME280_pressure;Samples;Min_cycle;Max_cycle;Signal;HPM_P1;HPM_P2
2021/11/05 00:01:47;;;;;;;34.22;11.75;;;5.10;99.90;;;;;;5023099;28;20037;-82
2021/11/05 00:04:13;;;;;;;20.35;10.32;;;5.00;99.90;;;;;;5027167;28;20382;-83
2021/11/05 00:06:39;;;;;;;19.75;10.00;;;5.00;99.90;;;;;;5022841;28;20037;-83
2021/11/05 00:09:05;;;;;;;19.48;10.23;;;5.00;99.90;;;;;;5041891;28;20120;-82
2021/11/05 00:11:31;;;;;;;17.52;8.68;;;4.80;99.90;;;;;;5019966;28;20101;-82
2021/11/05 00:13:56;;;;;;;17.52;8.85;;;4.90;99.90;;;;;;5024022;28;20029;-82
2021/11/05 00:16:22;;;;;;;14.70;8.13;;;4.90;99.90;;;;;;5003642;28;20117;-82
2021/11/05 00:18:48;;;;;;;15.65;8.82;;;4.80;99.90;;;;;;5025694;28;20043;-82
2021/11/05 00:21:13;;;;;;;15.18;8.60;;;4.80;99.90;;;;;;5003362;28;20041;-82
2021/11/05 00:23:39;;;;;;;15.48;7.57;;;4.80;99.90;;;;;;5036495;28;20069;-82
2021/11/05 00:26:04;;;;;;;12.50;7.50;;;4.70;99.90;;;;;;5006012;28;20432;-82
2021/11/05 00:28:30;;;;;;;15.05;7.15;;;4.60;99.90;;;;;;5026720;28;20037;-83
2021/11/05 00:30:56;;;;;;;13.57;7.35;;;4.60;99.90;;;;;;5021928;28;20026;-82
2021/11/05 00:33:22;;;;;;;11.73;6.53;;;4.60;99.90;;;;;;5023881;28;20036;-83
2021/11/05 00:35:48;;;;;;;10.82;6.97;;;4.50;99.90;;;;;;5041694;28;20446;-82
2021/11/05 00:38:14;;;;;;;13.30;7.82;;;4.40;99.90;;;;;;5041783;28;20051;-82
2021/11/05 00:40:40;;;;;;;12.88;7.95;;;4.40;99.90;;;;;;5025386;28;20136;-82
2021/11/05 00:43:05;;;;;;;12.70;6.97;;;4.40;99.90;;;;;;5038283;28;20048;-83
2021/11/05 00:48:47;;;;;;;8.85;5.72;;;4.30;99.90;;;;;;5044877;28;20056;-82
2021/11/05 00:51:13;;;;;;;8.15;5.13;;;4.30;99.90;;;;;;5044664;28;20046;-81
2021/11/05 00:53:38;;;;;;;9.68;5.32;;;4.30;99.90;;;;;;5044625;28;20061;-82
2021/11/05 00:56:04;;;;;;;8.77;5.07;;;4.30;99.90;;;;;;5042977;28;20036;-82
2021/11/05 00:58:30;;;;;;;8.48;5.50;;;4.30;99.90;;;;;;5027807;28;20080;-83
2021/11/05 01:00:55;;;;;;;9.80;6.03;;;4.30;99.90;;;;;;5027959;28;20052;-82
2021/11/05 01:03:21;;;;;;;9.25;5.88;;;4.20;99.90;;;;;;5041503;28;20040;-82
2021/11/05 01:05:46;;;;;;;9.65;5.32;;;4.30;99.90;;;;;;5044274;28;20033;-82
2021/11/05 01:08:12;;;;;;;7.28;4.63;;;4.20;99.90;;;;;;5027818;28;20045;-82
2021/11/05 01:10:38;;;;;;;7.57;5.43;;;4.30;99.90;;;;;;5043684;28;20029;-81
2021/11/05 01:13:06;;;;;;;12.23;5.80;;;4.20;99.90;;;;;;5027774;28;20041;-82
2021/11/05 01:15:33;;;;;;;7.60;5.38;;;4.20;99.90;;;;;;5044106;28;20037;-82
2021/11/05 01:17:58;;;;;;;10.23;5.68;;;4.10;99.90;;;;;;5044004;28;20044;-82
2021/11/05 01:20:24;;;;;;;7.82;5.30;;;4.10;99.90;;;;;;5044211;28;20037;-82
2021/11/05 01:22:50;;;;;;;8.35;5.13;;;4.00;99.90;;;;;;5043946;28;20034;-82
2021/11/05 01:25:16;;;;;;;8.55;5.20;;;4.00;99.90;;;;;;5043997;28;20048;-82
2021/11/05 01:27:44;;;;;;;7.10;4.97;;;4.00;99.90;;;;;;5043675;28;20036;-82
2021/11/05 01:30:12;;;;;;;5.35;3.90;;;4.00;99.90;;;;;;5043720;28;20065;-82
2021/11/05 01:32:40;;;;;;;6.55;4.40;;;4.00;99.90;;;;;;5010849;28;20049;-81
2021/11/05 01:35:07;;;;;;;6.28;4.63;;;4.00;99.90;;;;;;5043620;28;20397;-82
2021/11/05 01:37:33;;;;;;;5.57;4.10;;;3.90;99.90;;;;;;5043585;28;20508;-82
2021/11/05 01:39:59;;;;;;;5.78;4.50;;;3.80;99.90;;;;;;5043272;28;20045;-83
2021/11/05 01:42:25;;;;;;;5.38;3.97;;;3.90;99.90;;;;;;5027440;28;20029;-82
2021/11/05 01:44:50;;;;;;;8.07;4.05;;;3.90;99.90;;;;;;5027234;28;20068;-82
2021/11/05 01:47:18;;;;;;;6.18;4.25;;;3.80;99.90;;;;;;5024713;28;20053;-83
2021/11/05 01:49:45;;;;;;;4.82;3.83;;;3.70;99.90;;;;;;5027070;28;20061;-82
2021/11/05 01:52:11;;;;;;;8.50;4.93;;;3.80;99.90;;;;;;5043435;28;20113;-82
2021/11/05 01:54:36;;;;;;;6.07;4.50;;;3.70;99.90;;;;;;5043352;28;20038;-82
2021/11/05 01:57:03;;;;;;;6.38;4.47;;;3.70;99.90;;;;;;5043216;28;20044;-81
2021/11/05 01:59:33;;;;;;;5.93;3.90;;;3.60;99.90;;;;;;5043400;28;20085;-83
2021/11/05 02:02:01;;;;;;;5.25;3.85;;;3.60;99.90;;;;;;5043461;28;20076;-82
2021/11/05 02:04:27;;;;;;;5.00;4.03;;;3.60;99.90;;;;;;5043375;28;20057;-81
2021/11/05 02:06:54;;;;;;;6.22;4.03;;;3.60;99.90;;;;;;5027069;28;20113;-82
2021/11/05 02:09:23;;;;;;;5.65;3.97;;;3.50;99.90;;;;;;5026842;28;20441;-82
2021/11/05 02:11:50;;;;;;;5.78;3.72;;;3.50;99.90;;;;;;5043080;28;20533;-82
2021/11/05 02:14:20;;;;;;;6.88;4.25;;;3.40;99.90;;;;;;5010679;28;20050;-83
2021/11/05 02:16:47;;;;;;;5.20;4.05;;;3.50;99.90;;;;;;5031943;28;20109;-81
2021/11/05 02:19:17;;;;;;;6.93;4.40;;;3.40;99.90;;;;;;5026856;28;20037;-81
2021/11/05 02:21:45;;;;;;;7.18;4.00;;;3.50;99.90;;;;;;5043293;28;20034;-82
2021/11/05 02:24:12;;;;;;;6.50;4.28;;;3.40;99.90;;;;;;5046854;28;20080;-82
2021/11/05 02:26:39;;;;;;;6.30;4.30;;;3.30;99.90;;;;;;5030199;28;20029;-81
2021/11/05 02:29:05;;;;;;;6.40;3.78;;;3.30;99.90;;;;;;5046862;28;20033;-82
2021/11/05 02:31:31;;;;;;;7.70;4.55;;;3.30;99.90;;;;;;5046576;28;20065;-82
2021/11/05 02:33:58;;;;;;;5.40;3.70;;;3.30;99.90;;;;;;5046961;28;20468;-82
2021/11/05 02:36:24;;;;;;;7.10;4.00;;;3.30;99.90;;;;;;5029616;28;20037;-82
2021/11/05 02:38:50;;;;;;;5.40;3.83;;;3.20;99.90;;;;;;5030739;28;20041;-82
2021/11/05 02:41:16;;;;;;;6.97;4.03;;;3.20;99.90;;;;;;5030086;28;20042;-82
2021/11/05 02:43:41;;;;;;;6.20;4.28;;;3.20;99.90;;;;;;5030138;28;20040;-83
2021/11/05 02:46:07;;;;;;;5.30;3.70;;;3.10;99.90;;;;;;5025274;28;20073;-82
2021/11/05 02:48:33;;;;;;;6.10;4.00;;;3.10;99.90;;;;;;5029992;28;20033;-82
2021/11/05 02:50:59;;;;;;;5.45;3.63;;;3.10;99.90;;;;;;5029935;28;20075;-82
2021/11/05 02:53:25;;;;;;;6.43;4.57;;;3.00;99.90;;;;;;5046420;28;20077;-82
2021/11/05 02:55:51;;;;;;;5.40;3.45;;;3.10;99.90;;;;;;5029810;28;20473;-81
2021/11/05 02:58:20;;;;;;;5.35;3.75;;;3.00;99.90;;;;;;5029672;28;20041;-82
2021/11/05 03:00:46;;;;;;;7.80;4.40;;;3.00;99.90;;;;;;5029701;28;20037;-82
2021/11/05 03:03:12;;;;;;;5.68;3.35;;;3.00;99.90;;;;;;5047588;28;20037;-82
2021/11/05 03:05:39;;;;;;;9.45;4.85;;;3.00;99.90;;;;;;5026765;28;20409;-83
2021/11/05 03:08:04;;;;;;;4.80;3.13;;;2.90;99.90;;;;;;5029599;28;20121;-81
2021/11/05 03:10:31;;;;;;;7.57;3.65;;;3.00;99.90;;;;;;5046074;28;20397;-82
2021/11/05 03:12:56;;;;;;;5.85;3.50;;;3.00;99.90;;;;;;5029325;28;20045;-82
2021/11/05 03:15:22;;;;;;;5.82;4.10;;;2.90;99.90;;;;;;5047195;28;20102;-82
2021/11/05 03:17:49;;;;;;;6.38;4.03;;;3.10;99.90;;;;;;5029543;28;20041;-82
2021/11/05 03:20:16;;;;;;;6.47;4.22;;;3.10;99.90;;;;;;5013076;28;20037;-82
2021/11/05 03:22:42;;;;;;;6.50;3.35;;;3.00;99.90;;;;;;5029343;28;20041;-82
2021/11/05 03:25:09;;;;;;;6.50;3.60;;;3.00;99.90;;;;;;5029288;28;20044;-82
2021/11/05 03:27:35;;;;;;;6.00;3.67;;;3.00;99.90;;;;;;5045888;28;20037;-82
2021/11/05 03:30:02;;;;;;;7.65;4.30;;;3.00;99.90;;;;;;5028352;28;20080;-82
2021/11/05 03:32:28;;;;;;;7.32;3.97;;;3.00;99.90;;;;;;5045375;28;20049;-82
2021/11/05 03:34:53;;;;;;;10.40;4.53;;;2.90;99.90;;;;;;5045456;28;20038;-82
2021/11/05 03:37:19;;;;;;;6.10;3.30;;;3.00;99.90;;;;;;5045422;28;20045;-82
2021/11/05 03:39:45;;;;;;;7.15;3.75;;;3.10;99.90;;;;;;5029201;28;20045;-82
2021/11/05 03:42:10;;;;;;;7.25;3.63;;;3.10;99.90;;;;;;5028955;28;20038;-82
2021/11/05 03:44:36;;;;;;;5.93;3.75;;;3.10;99.90;;;;;;5045442;28;20029;-81
2021/11/05 03:47:02;;;;;;;6.25;3.67;;;3.00;99.90;;;;;;5046084;28;20056;-82
2021/11/05 03:49:29;;;;;;;6.70;3.80;;;3.00;99.90;;;;;;5045426;28;20060;-82
2021/11/05 03:51:56;;;;;;;6.30;3.40;;;2.90;99.90;;;;;;5012225;28;20055;-82
2021/11/05 03:54:22;;;;;;;6.00;3.15;;;3.00;99.90;;;;;;5046612;28;20042;-83
2021/11/05 03:56:48;;;;;;;7.53;4.40;;;2.90;99.90;;;;;;5044864;28;20049;-82
2021/11/05 03:59:13;;;;;;;6.93;3.78;;;2.80;99.90;;;;;;5028539;28;20104;-83
2021/11/05 04:01:39;;;;;;;7.20;3.28;;;2.80;99.90;;;;;;5044922;28;20052;-82
2021/11/05 04:04:05;;;;;;;6.50;3.10;;;2.80;99.90;;;;;;5045086;28;20033;-82
2021/11/05 04:06:32;;;;;;;7.00;3.55;;;2.80;99.90;;;;;;5028077;28;20041;-83
2021/11/05 04:08:58;;;;;;;4.07;2.35;;;2.80;99.90;;;;;;5045021;28;20033;-82
2021/11/05 04:11:23;;;;;;;6.25;3.38;;;2.80;99.90;;;;;;5028254;28;20404;-83
2021/11/05 04:13:50;;;;;;;4.60;2.45;;;2.80;99.90;;;;;;5044898;28;20493;-82
2021/11/05 04:16:16;;;;;;;4.78;2.72;;;2.70;99.90;;;;;;5027902;28;20041;-82
2021/11/05 04:18:43;;;;;;;4.82;2.80;;;2.80;99.90;;;;;;5044648;28;20068;-82
2021/11/05 04:21:09;;;;;;;3.97;2.20;;;2.70;99.90;;;;;;5012071;28;20363;-82
2021/11/05 04:23:35;;;;;;;4.32;2.28;;;2.60;99.90;;;;;;5026341;28;20061;-81
2021/11/05 04:26:01;;;;;;;4.07;2.08;;;2.70;99.90;;;;;;5027841;28;20036;-82
2021/11/05 04:28:27;;;;;;;4.35;1.95;;;2.60;99.90;;;;;;5045607;28;20046;-83
2021/11/05 04:30:53;;;;;;;6.18;1.90;;;2.70;99.90;;;;;;5027886;28;20288;-81
2021/11/05 04:33:18;;;;;;;5.10;2.28;;;2.90;99.90;;;;;;5044475;28;20407;-81
2021/11/05 04:35:44;;;;;;;3.13;1.63;;;2.90;99.90;;;;;;5025823;28;20030;-83
2021/11/05 04:38:11;;;;;;;4.65;2.08;;;2.90;99.90;;;;;;5044324;28;20485;-82
2021/11/05 04:40:37;;;;;;;4.20;1.67;;;2.90;99.90;;;;;;5027853;28;20042;-83
2021/11/05 04:43:03;;;;;;;4.30;2.17;;;3.10;99.90;;;;;;5044264;28;20124;-82
2021/11/05 04:45:49;;;;;;;2.60;1.33;;;3.10;99.90;;;;;;5043308;28;20057;-82
2021/11/05 04:48:15;;;;;;;3.67;1.42;;;3.10;99.90;;;;;;4967831;28;20047;-81
2021/11/05 04:50:41;;;;;;;3.28;1.42;;;3.10;99.90;;;;;;4984303;28;20043;-82
2021/11/05 04:53:07;;;;;;;4.47;1.67;;;3.00;99.90;;;;;;4952081;28;20050;-81
2021/11/05 04:55:33;;;;;;;5.72;1.48;;;3.00;99.90;;;;;;4984258;28;20226;-82
2021/11/05 04:57:59;;;;;;;4.22;1.27;;;3.10;99.90;;;;;;4951891;28;20045;-82
2021/11/05 05:00:26;;;;;;;3.75;1.00;;;2.90;99.90;;;;;;4967837;28;20081;-82
2021/11/05 05:02:53;;;;;;;3.42;1.25;;;2.90;99.90;;;;;;4984047;28;20039;-82
2021/11/05 05:05:19;;;;;;;3.42;1.38;;;2.90;99.90;;;;;;4951925;28;20259;-81
2021/11/05 05:07:46;;;;;;;2.67;1.23;;;2.80;99.90;;;;;;4951638;28;20041;-83
2021/11/05 05:10:13;;;;;;;3.08;1.27;;;2.90;99.90;;;;;;4952014;28;20038;-82
2021/11/05 05:12:39;;;;;;;3.95;1.10;;;2.90;99.90;;;;;;4950992;28;20097;-83
2021/11/05 05:15:07;;;;;;;2.75;1.27;;;2.80;99.90;;;;;;4951865;28;20130;-82
2021/11/05 05:17:33;;;;;;;4.13;1.45;;;2.70;99.90;;;;;;4951419;28;20039;-81
2021/11/05 05:19:58;;;;;;;4.00;0.95;;;2.80;99.90;;;;;;4967926;28;20054;-82
2021/11/05 05:22:24;;;;;;;2.47;0.95;;;2.70;99.90;;;;;;4967699;28;20056;-82
2021/11/05 05:24:50;;;;;;;3.50;1.10;;;2.70;99.90;;;;;;5002135;28;20035;-82
2021/11/05 05:27:15;;;;;;;3.05;1.10;;;2.80;99.90;;;;;;5027144;28;20140;-82
2021/11/05 05:29:43;;;;;;;3.33;1.20;;;2.70;99.90;;;;;;5026929;28;20069;-81
2021/11/05 05:32:09;;;;;;;3.10;0.98;;;2.70;99.90;;;;;;5041255;28;20064;-83
2021/11/05 05:34:35;;;;;;;2.33;1.08;;;2.70;99.90;;;;;;5045173;28;20033;-82
2021/11/05 05:37:00;;;;;;;3.67;1.40;;;2.70;99.90;;;;;;5027441;28;20095;-82
2021/11/05 05:39:26;;;;;;;2.50;1.00;;;2.80;99.90;;;;;;5045167;28;20116;-82
2021/11/05 05:41:52;;;;;;;3.75;1.13;;;2.70;99.90;;;;;;5027358;28;20057;-82
2021/11/05 05:44:18;;;;;;;3.40;1.05;;;2.70;99.90;;;;;;5043114;28;20041;-82
2021/11/05 05:46:44;;;;;;;3.63;0.90;;;2.70;99.90;;;;;;5023623;28;20041;-82
2021/11/05 05:49:10;;;;;;;3.42;1.23;;;2.60;99.90;;;;;;5043453;28;20038;-81
2021/11/05 05:51:36;;;;;;;4.30;1.30;;;2.60;99.90;;;;;;5025001;28;20052;-81
2021/11/05 05:54:02;;;;;;;2.30;0.85;;;2.60;99.90;;;;;;5010856;28;20033;-81
2021/11/05 05:56:28;;;;;;;2.72;1.20;;;2.60;99.90;;;;;;5027852;28;20042;-82
2021/11/05 05:58:53;;;;;;;5.70;1.30;;;2.80;99.90;;;;;;5030905;28;20077;-83
2021/11/05 06:01:19;;;;;;;3.70;1.20;;;2.60;99.90;;;;;;5047253;28;20052;-82
2021/11/05 06:03:45;;;;;;;3.08;1.48;;;2.60;99.90;;;;;;5047005;28;20249;-81
2021/11/05 06:06:11;;;;;;;2.78;1.00;;;2.70;99.90;;;;;;5047189;28;20033;-82
2021/11/05 06:08:37;;;;;;;3.80;1.58;;;2.60;99.90;;;;;;5045107;28;20029;-82
2021/11/05 06:11:03;;;;;;;3.63;1.48;;;2.60;99.90;;;;;;5030590;28;20060;-82
2021/11/05 06:13:29;;;;;;;2.80;1.30;;;2.60;99.90;;;;;;5030736;28;20111;-82
2021/11/05 06:15:54;;;;;;;3.63;1.50;;;2.60;99.90;;;;;;5046154;28;20193;-84
2021/11/05 06:18:20;;;;;;;4.80;1.75;;;2.70;99.90;;;;;;5047231;28;20033;-84
2021/11/05 06:20:46;;;;;;;8.00;2.33;;;2.70;99.90;;;;;;5030825;28;20099;-84
2021/11/05 06:23:13;;;;;;;5.28;2.65;;;2.80;99.90;;;;;;5030622;28;20057;-84
2021/11/05 06:25:40;;;;;;;5.95;2.78;;;3.30;99.90;;;;;;5047119;28;20040;-84
2021/11/05 06:28:08;;;;;;;6.13;2.97;;;3.50;99.90;;;;;;5030468;28;20409;-84
2021/11/05 06:30:33;;;;;;;5.57;2.63;;;3.10;99.90;;;;;;5029915;28;20067;-83
2021/11/05 06:33:01;;;;;;;4.93;2.60;;;2.90;99.90;;;;;;5024629;28;20045;-84
2021/11/05 06:35:28;;;;;;;5.18;2.67;;;2.70;99.90;;;;;;5046440;28;20501;-83
2021/11/05 06:37:57;;;;;;;4.53;2.10;;;2.80;99.90;;;;;;5029821;28;20133;-84
2021/11/05 06:40:23;;;;;;;6.93;2.75;;;2.80;99.90;;;;;;5028877;28;20045;-87
2021/11/05 06:42:49;;;;;;;6.90;2.13;;;2.70;99.90;;;;;;5030294;28;20064;-83
2021/11/05 06:45:34;;;;;;;4.50;2.60;;;2.70;99.90;;;;;;5029920;28;20033;-83
2021/11/05 06:48:00;;;;;;;5.68;2.55;;;2.80;99.90;;;;;;4967963;28;20046;-83
2021/11/05 06:50:26;;;;;;;7.65;3.08;;;2.90;99.90;;;;;;4954370;28;20069;-82
2021/11/05 06:52:51;;;;;;;5.30;2.58;;;3.00;99.90;;;;;;4986454;28;20047;-83
2021/11/05 06:55:17;;;;;;;5.45;3.15;;;3.00;99.90;;;;;;4969433;28;20035;-83
2021/11/05 06:57:43;;;;;;;4.43;2.45;;;3.30;99.90;;;;;;4964221;28;20063;-82
2021/11/05 07:00:12;;;;;;;4.45;2.38;;;3.30;99.90;;;;;;4985655;28;20540;-83
2021/11/05 07:02:41;;;;;;;4.90;2.97;;;3.40;99.90;;;;;;4969581;28;20039;-83
2021/11/05 07:05:11;;;;;;;5.63;2.65;;;3.20;99.90;;;;;;4969197;28;20433;-83
2021/11/05 07:07:37;;;;;;;4.70;2.50;;;3.10;99.90;;;;;;4953007;28;20102;-83
2021/11/05 07:10:04;;;;;;;4.22;2.05;;;3.20;99.90;;;;;;4985240;28;20045;-83
2021/11/05 07:12:29;;;;;;;6.03;2.58;;;3.00;99.90;;;;;;4985568;28;20171;-83
2021/11/05 07:14:55;;;;;;;5.18;2.55;;;3.10;99.90;;;;;;4969207;28;20058;-82
2021/11/05 07:17:21;;;;;;;3.67;2.30;;;3.20;99.90;;;;;;4985352;28;20094;-82
2021/11/05 07:19:46;;;;;;;8.35;3.55;;;3.00;99.90;;;;;;4968931;28;20038;-82
2021/11/05 07:22:12;;;;;;;7.05;2.80;;;3.30;99.90;;;;;;4952996;28;20061;-82
2021/11/05 07:24:38;;;;;;;4.10;1.88;;;3.30;99.90;;;;;;4971936;28;20043;-82
2021/11/05 07:27:04;;;;;;;5.10;2.67;;;3.60;99.90;;;;;;5028650;28;20124;-82
2021/11/05 07:29:31;;;;;;;5.15;3.47;;;3.90;99.90;;;;;;5028881;28;20172;-83
2021/11/05 07:31:59;;;;;;;4.22;3.00;;;4.00;99.90;;;;;;5028557;28;20049;-82
2021/11/05 07:34:30;;;;;;;6.03;3.00;;;3.60;99.90;;;;;;5028539;28;20041;-83
2021/11/05 07:36:58;;;;;;;4.28;2.60;;;3.60;99.90;;;;;;5045309;28;20034;-83
2021/11/05 07:39:25;;;;;;;6.93;3.33;;;3.50;99.90;;;;;;5028822;28;20164;-83
2021/11/05 07:41:51;;;;;;;4.70;2.63;;;3.50;99.90;;;;;;5012013;28;20037;-83
2021/11/05 07:44:16;;;;;;;3.97;1.75;;;3.50;99.90;;;;;;5028726;28;20037;-83
2021/11/05 07:46:44;;;;;;;9.80;3.25;;;3.70;99.90;;;;;;5044479;28;20041;-83
2021/11/05 07:49:10;;;;;;;3.90;2.53;;;3.80;99.90;;;;;;5028330;28;20087;-83
2021/11/05 07:51:36;;;;;;;8.07;3.22;;;3.90;99.90;;;;;;5044686;28;20049;-83
2021/11/05 07:54:02;;;;;;;7.80;3.83;;;4.20;99.90;;;;;;5028079;28;20486;-83
2021/11/05 07:56:28;;;;;;;7.03;3.97;;;4.50;99.90;;;;;;5044545;28;20112;-83
2021/11/05 07:58:53;;;;;;;9.43;4.35;;;4.50;99.90;;;;;;5027978;28;20041;-83
2021/11/05 08:01:19;;;;;;;8.88;3.30;;;4.70;99.90;;;;;;5027978;28;20049;-83
2021/11/05 08:03:45;;;;;;;5.88;3.65;;;4.90;99.90;;;;;;5028042;28;20040;-83
2021/11/05 08:06:11;;;;;;;6.13;4.25;;;5.10;99.90;;;;;;5044091;28;20056;-83
2021/11/05 08:08:37;;;;;;;5.97;4.20;;;5.20;99.90;;;;;;5027928;28;20025;-84
2021/11/05 08:11:03;;;;;;;8.73;4.70;;;5.20;99.90;;;;;;5044244;28;20068;-84
2021/11/05 08:13:29;;;;;;;5.35;4.05;;;5.30;99.90;;;;;;5044342;28;20068;-83
2021/11/05 08:15:55;;;;;;;8.48;4.72;;;5.40;99.90;;;;;;5044282;28;20053;-84
2021/11/05 08:18:20;;;;;;;11.10;5.85;;;5.50;99.90;;;;;;5027714;28;20034;-83
2021/11/05 08:20:46;;;;;;;6.80;4.20;;;5.60;99.90;;;;;;5043102;28;20030;-84
2021/11/05 08:23:12;;;;;;;9.48;4.53;;;5.60;99.90;;;;;;5027650;28;20042;-83
2021/11/05 08:25:38;;;;;;;7.25;6.15;;;5.80;99.90;;;;;;5044161;28;20064;-83
2021/11/05 08:28:04;;;;;;;10.43;5.85;;;5.80;99.90;;;;;;5028072;28;20075;-84
2021/11/05 08:30:30;;;;;;;10.02;5.38;;;6.00;99.90;;;;;;5028010;28;20034;-83
2021/11/05 08:33:00;;;;;;;11.70;7.22;;;6.10;99.90;;;;;;5028043;28;20180;-83
2021/11/05 08:35:28;;;;;;;9.88;5.35;;;6.20;99.90;;;;;;5027393;28;20456;-83
2021/11/05 08:37:54;;;;;;;12.73;6.43;;;6.30;99.90;;;;;;5043778;28;20033;-83
2021/11/05 08:40:20;;;;;;;10.65;5.82;;;6.40;99.90;;;;;;5043902;28;20037;-83
2021/11/05 08:42:46;;;;;;;13.63;5.88;;;6.40;99.90;;;;;;5043870;28;20063;-83
2021/11/05 08:45:35;;;;;;;9.30;6.15;;;6.60;99.90;;;;;;5027207;28;20052;-82
2021/11/05 08:48:03;;;;;;;14.07;6.43;;;6.70;99.90;;;;;;4967362;28;20054;-83
2021/11/05 08:50:29;;;;;;;11.60;6.28;;;6.80;99.90;;;;;;4951592;28;20139;-83
2021/11/05 08:52:56;;;;;;;10.98;6.93;;;6.90;99.90;;;;;;4964802;28;20077;-83
2021/11/05 08:55:21;;;;;;;14.18;7.97;;;7.00;99.90;;;;;;4983822;28;20114;-83
2021/11/05 08:57:47;;;;;;;12.55;7.38;;;7.10;99.90;;;;;;4951247;28;20039;-83
2021/11/05 09:00:23;;;;;;;14.90;8.70;;;7.20;99.90;;;;;;4983508;28;20109;-83
2021/11/05 09:02:49;;;;;;;12.02;7.30;;;7.30;99.90;;;;;;4949076;28;20043;-83
2021/11/05 09:05:16;;;;;;;9.25;6.47;;;7.50;99.90;;;;;;4983425;28;20130;-83
2021/11/05 09:07:42;;;;;;;10.95;7.07;;;7.70;99.90;;;;;;4950897;28;20038;-83
2021/11/05 09:10:08;;;;;;;13.55;6.07;;;7.60;99.90;;;;;;4983869;28;20046;-83
2021/11/05 09:12:36;;;;;;;11.00;6.22;;;7.90;99.90;;;;;;4982901;28;20055;-82
2021/11/05 09:15:03;;;;;;;15.77;6.90;;;8.00;99.90;;;;;;4951494;28;20065;-83
2021/11/05 09:17:29;;;;;;;9.05;6.25;;;8.20;99.90;;;;;;4951079;28;20047;-84
2021/11/05 09:19:54;;;;;;;13.40;7.53;;;8.50;99.90;;;;;;4967337;28;20039;-83
2021/11/05 09:22:20;;;;;;;12.48;7.30;;;8.30;99.90;;;;;;4951188;28;20045;-83
2021/11/05 09:24:46;;;;;;;12.10;6.25;;;8.30;99.90;;;;;;5008137;28;20036;-83
2021/11/05 09:27:11;;;;;;;7.35;5.20;;;8.00;99.90;;;;;;5043188;28;20046;-83
2021/11/05 09:29:37;;;;;;;7.93;5.65;;;8.00;99.90;;;;;;5026929;28;20033;-84
2021/11/05 09:32:03;;;;;;;8.32;5.30;;;7.90;99.90;;;;;;5028947;28;20048;-83
2021/11/05 09:34:32;;;;;;;9.60;5.85;;;8.10;99.90;;;;;;5047699;28;20037;-83
2021/11/05 09:37:00;;;;;;;7.75;5.13;;;8.30;99.90;;;;;;5030628;28;20026;-84
2021/11/05 09:39:26;;;;;;;16.02;5.68;;;8.40;99.90;;;;;;5030931;28;20482;-84
2021/11/05 09:41:52;;;;;;;9.85;6.32;;;8.50;99.90;;;;;;5030864;28;20104;-83
2021/11/05 09:44:18;;;;;;;10.13;5.95;;;8.70;99.90;;;;;;5030634;28;20097;-83
2021/11/05 09:46:45;;;;;;;10.00;5.35;;;8.70;99.90;;;;;;5045975;28;20045;-83
2021/11/05 09:49:11;;;;;;;10.48;5.63;;;8.80;99.90;;;;;;5029429;28;20052;-84
2021/11/05 09:51:37;;;;;;;16.15;5.13;;;8.80;99.90;;;;;;5030170;28;20064;-84
2021/11/05 09:54:03;;;;;;;12.63;6.20;;;8.90;99.90;;;;;;5014244;28;20189;-84
2021/11/05 09:56:29;;;;;;;8.85;4.70;;;9.00;99.90;;;;;;5030204;28;20463;-83
2021/11/05 09:58:56;;;;;;;11.52;4.70;;;9.10;99.90;;;;;;5046721;28;20101;-83
2021/11/05 10:01:21;;;;;;;13.75;5.25;;;9.10;99.90;;;;;;5047117;28;20041;-84
2021/11/05 10:03:47;;;;;;;9.02;4.97;;;9.10;99.90;;;;;;5030179;28;20080;-84
2021/11/05 10:06:13;;;;;;;8.93;4.65;;;9.20;99.90;;;;;;5046750;28;20072;-84
2021/11/05 10:08:39;;;;;;;9.65;3.83;;;9.00;99.90;;;;;;5029878;28;20037;-84
2021/11/05 10:11:28;;;;;;;6.93;3.10;;;9.00;99.90;;;;;;5030010;28;20026;-84
2021/11/05 10:13:55;;;;;;;7.00;4.13;;;9.10;99.90;;;;;;5013806;28;20120;-84
2021/11/05 10:16:24;;;;;;;8.60;4.32;;;9.30;99.90;;;;;;5047655;28;20041;-84
2021/11/05 10:19:06;;;;;;;8.77;3.90;;;9.30;99.90;;;;;;5046914;28;20037;-85
2021/11/05 10:21:40;;;;;;;8.40;4.10;;;9.30;99.90;;;;;;5046006;28;20390;-84
2021/11/05 10:24:09;;;;;;;9.35;4.75;;;9.40;99.90;;;;;;5030492;28;20026;-84
2021/11/05 10:26:35;;;;;;;8.45;4.30;;;9.30;99.90;;;;;;5030015;28;20120;-84
2021/11/05 10:29:06;;;;;;;6.60;4.00;;;9.20;99.90;;;;;;5046503;28;20025;-83
2021/11/05 10:31:32;;;;;;;;;;;9.30;99.90;;;;;;5013931;28;20325;-83
2021/11/05 10:33:57;;;;;;;6.90;3.50;;;9.60;99.90;;;;;;5029787;28;19950;-83
2021/11/05 10:36:24;;;;;;;8.65;3.67;;;9.90;99.90;;;;;;5044415;28;20038;-83
2021/11/05 10:38:55;;;;;;;5.00;3.67;;;10.10;99.90;;;;;;5046060;28;20044;-83
2021/11/05 10:41:23;;;;;;;6.78;3.83;;;10.10;99.90;;;;;;5029847;28;20063;-82
2021/11/05 10:43:57;;;;;;;15.02;4.22;;;10.30;99.90;;;;;;5042857;28;20312;-84
2021/11/05 10:46:51;;;;;;;7.20;2.85;;;10.20;99.90;;;;;;5045558;28;20494;-84
2021/11/05 10:49:26;;;;;;;7.55;2.95;;;10.20;99.90;;;;;;5027247;28;20045;-84
2021/11/05 10:52:18;;;;;;;7.55;2.72;;;10.10;99.90;;;;;;5029517;28;20520;-84
2021/11/05 10:54:54;;;;;;;6.88;2.75;;;10.40;99.90;;;;;;5029332;28;20133;-85
2021/11/05 10:57:41;;;;;;;9.45;3.38;;;10.60;99.90;;;;;;5028872;28;20038;-83
2021/11/05 11:00:24;;;;;;;18.15;3.63;;;10.70;99.90;;;;;;5043128;28;20034;-83
2021/11/05 11:02:50;;;;;;;5.53;1.80;;;10.70;99.90;;;;;;5045838;28;20049;-84
2021/11/05 11:05:34;;;;;;;8.10;1.85;;;10.80;99.90;;;;;;5046833;28;20037;-84
2021/11/05 11:08:01;;;;;;;7.07;2.53;;;10.90;99.90;;;;;;5027139;28;20049;-84
2021/11/05 11:10:32;;;;;;;7.15;2.65;;;10.90;99.90;;;;;;5045504;28;20033;-84
2021/11/05 11:12:58;;;;;;;4.35;2.60;;;10.80;99.90;;;;;;5028679;28;20045;-83
2021/11/05 11:15:36;;;;;;;8.43;2.55;;;10.90;99.90;;;;;;5026290;28;20037;-83
2021/11/05 11:18:03;;;;;;;6.47;1.13;;;11.00;99.90;;;;;;5012439;28;20049;-83
2021/11/05 11:20:36;;;;;;;7.53;1.38;;;11.10;99.90;;;;;;5026357;28;20133;-84
2021/11/05 11:23:02;;;;;;;5.00;1.20;;;11.20;99.90;;;;;;5045269;28;20040;-84
2021/11/05 11:25:29;;;;;;;8.32;1.83;;;11.20;99.90;;;;;;5028464;28;20048;-84
2021/11/05 11:27:56;;;;;;;6.88;2.13;;;11.10;99.90;;;;;;5028661;28;20029;-84
2021/11/05 11:30:22;;;;;;;6.97;2.33;;;11.20;99.90;;;;;;5028516;28;20049;-83
2021/11/05 11:32:50;;;;;;;6.28;2.42;;;11.30;99.90;;;;;;5045132;28;20045;-84
2021/11/05 11:35:16;;;;;;;6.10;2.42;;;11.20;99.90;;;;;;5028547;28;20041;-84
2021/11/05 11:37:43;;;;;;;7.28;2.25;;;11.10;99.90;;;;;;5027563;28;20040;-84
2021/11/05 11:40:11;;;;;;;4.38;1.92;;;11.10;99.90;;;;;;5028360;28;20069;-84
2021/11/05 11:42:37;;;;;;;6.90;1.95;;;11.10;99.90;;;;;;5028544;28;20057;-84
2021/11/05 11:45:11;;;;;;;5.30;2.05;;;11.20;99.90;;;;;;5026514;28;20528;-84
2021/11/05 11:47:46;;;;;;;6.88;1.80;;;11.20;99.90;;;;;;5044827;28;20044;-83
2021/11/05 11:50:32;;;;;;;7.30;1.88;;;11.20;99.90;;;;;;5028321;28;20072;-84
2021/11/05 11:52:58;;;;;;;9.68;1.85;;;11.40;99.90;;;;;;5043137;28;20110;-83
2021/11/05 11:55:24;;;;;;;6.80;1.10;;;11.40;99.90;;;;;;5011437;28;20033;-83
2021/11/05 11:58:09;;;;;;;7.13;1.10;;;11.20;99.90;;;;;;5044835;28;20052;-84
2021/11/05 12:00:35;;;;;;;7.22;0.95;;;11.20;99.90;;;;;;5044670;28;20034;-84
2021/11/05 12:03:05;;;;;;;6.45;1.15;;;11.10;99.90;;;;;;5028182;28;20033;-84
2021/11/05 12:05:31;;;;;;;6.43;0.90;;;11.10;99.90;;;;;;5027981;28;20105;-84
2021/11/05 12:08:20;;;;;;;6.10;0.90;;;11.00;99.90;;;;;;5028181;28;20125;-84
2021/11/05 12:10:54;;;;;;;6.95;0.73;;;11.30;99.90;;;;;;5009157;28;20042;-84
2021/11/05 12:13:35;;;;;;;3.17;0.60;;;11.40;99.90;;;;;;5028128;28;20057;-84
2021/11/05 12:16:25;;;;;;;6.75;0.90;;;11.50;99.90;;;;;;5026725;28;20034;-85
2021/11/05 12:19:00;;;;;;;;;;;11.40;99.90;;;;;;5009795;28;20033;-83
2021/11/05 12:21:35;;;;;;;4.13;0.73;;;11.40;99.90;;;;;;5011224;28;19910;-84
2021/11/05 12:26:51;;;;;;;3.47;0.70;;;11.40;99.90;;;;;;5040919;28;20041;-84
2021/11/05 12:29:32;;;;;;;3.25;0.65;;;11.40;99.90;;;;;;5036803;28;20048;-87
2021/11/05 12:32:02;;;;;;;2.33;0.60;;;11.40;99.90;;;;;;5009333;28;20042;-86
2021/11/05 12:34:39;;;;;;;4.40;0.90;;;11.40;99.90;;;;;;5010842;28;20042;-85
2021/11/05 12:37:06;;;;;;;7.18;0.95;;;11.40;99.90;;;;;;5041666;28;20026;-85
2021/11/05 12:39:37;;;;;;;2.03;0.60;;;11.40;99.90;;;;;;5042924;28;20071;-86
2021/11/05 12:42:16;;;;;;;5.05;0.65;;;11.60;99.90;;;;;;5042359;28;20108;-89
2021/11/05 12:45:00;;;;;;;2.75;1.02;;;11.50;99.90;;;;;;5042397;28;20029;-88
2021/11/05 12:47:49;;;;;;;2.13;0.63;;;11.60;99.90;;;;;;5040687;28;20041;-86
2021/11/05 12:50:33;;;;;;;5.93;0.52;;;11.50;99.90;;;;;;5024015;28;20041;-88
2021/11/05 12:53:02;;;;;;;4.53;0.47;;;11.50;99.90;;;;;;5021317;28;20103;-87
2021/11/05 12:55:34;;;;;;;3.10;0.45;;;11.50;99.90;;;;;;5030706;28;20041;-92
2021/11/05 12:58:03;;;;;;;5.32;0.52;;;11.50;99.90;;;;;;5040997;28;20056;-87
2021/11/05 13:00:34;;;;;;;3.42;0.50;;;11.60;99.90;;;;;;5023261;28;20038;-90
2021/11/05 13:03:02;;;;;;;6.82;0.70;;;11.50;99.90;;;;;;5040908;28;20402;-87